Time;durP1;ratioP1;P1;durP2;ratioP2;P2;SDS_P1;SDS_P2;PMS_P1;PMS_P2;Temp;Humidity;BMP_temperature;BMP_pressure;BME280_temperature;BME280_humidity;BME280_pressure;Samples;Min_cycle;Max_cycle;Signal;HPM_P1;HPM_P2
2023/03/22 00:00:57;;;;;;;7.55;3.35;;;9.70;99.90;;;;;;6253193;23;20079;-87
2023/03/22 00:03:45;;;;;;;7.88;3.13;;;9.70;99.90;;;;;;6261183;23;20024;-87
2023/03/22 00:06:32;;;;;;;4.82;3.03;;;9.70;99.90;;;;;;6261083;23;20024;-86
2023/03/22 00:09:26;;;;;;;6.72;3.05;;;9.70;99.90;;;;;;6253914;23;20369;-86
2023/03/22 00:12:16;;;;;;;5.38;2.70;;;9.60;99.90;;;;;;6247738;23;20027;-86
2023/03/22 00:15:06;;;;;;;4.80;3.45;;;9.50;99.90;;;;;;6226934;23;20032;-86
2023/03/22 00:17:54;;;;;;;5.82;3.22;;;9.40;99.90;;;;;;6248266;23;20043;-87
2023/03/22 00:20:52;;;;;;;5.43;3.20;;;9.30;99.90;;;;;;6246440;23;20031;-87
2023/03/22 00:23:40;;;;;;;5.15;3.65;;;9.10;99.90;;;;;;6246876;23;20031;-87
2023/03/22 00:26:27;;;;;;;8.13;3.22;;;8.90;1.00;;;;;;6245266;23;20028;-87
2023/03/22 00:29:14;;;;;;;5.90;3.42;;;8.70;1.00;;;;;;6245191;23;20024;-87
2023/03/22 00:32:03;;;;;;;4.82;3.17;;;8.60;1.00;;;;;;6222277;23;20024;-88
2023/03/22 00:34:50;;;;;;;4.43;3.63;;;8.50;1.00;;;;;;6249846;23;20031;-88
2023/03/22 00:37:37;;;;;;;4.88;3.20;;;8.50;1.00;;;;;;6253240;23;20078;-88
2023/03/22 00:40:25;;;;;;;6.28;3.45;;;8.50;1.00;;;;;;6248243;23;20765;-87
2023/03/22 00:43:12;;;;;;;5.25;3.05;;;8.40;1.00;;;;;;6245069;23;20024;-87
2023/03/22 00:46:02;;;;;;;8.05;3.50;;;8.40;1.00;;;;;;6245012;23;20020;-87
2023/03/22 00:48:49;;;;;;;3.40;3.10;;;8.40;1.00;;;;;;6244814;23;20028;-87
2023/03/22 00:51:37;;;;;;;4.22;3.28;;;8.30;1.00;;;;;;6246181;23;20028;-87
2023/03/22 00:54:24;;;;;;;4.22;3.30;;;8.20;1.00;;;;;;6247321;23;20043;-88
2023/03/22 00:57:13;;;;;;;4.05;3.50;;;8.20;9.70;;;;;;6245353;23;20302;-87
2023/03/22 01:00:08;;;;;;;4.20;3.30;;;8.10;18.80;;;;;;6248631;22;20032;-87
2023/03/22 01:02:58;;;;;;;4.85;3.00;;;7.90;34.50;;;;;;6223837;23;20324;-88
2023/03/22 01:05:45;;;;;;;7.53;3.30;;;7.80;77.80;;;;;;6244756;23;20039;-87
2023/03/22 01:08:33;;;;;;;4.40;3.17;;;7.80;99.90;;;;;;6245004;23;20024;-88
2023/03/22 01:11:20;;;;;;;4.95;3.33;;;7.70;99.90;;;;;;6224417;23;20035;-88
2023/03/22 01:14:08;;;;;;;4.68;3.40;;;7.60;99.90;;;;;;6246376;23;20490;-87
2023/03/22 01:16:56;;;;;;;4.40;3.58;;;7.40;99.90;;;;;;6244631;23;20056;-87
2023/03/22 01:19:43;;;;;;;7.38;3.83;;;7.30;99.90;;;;;;6245309;23;20032;-88
2023/03/22 01:22:30;;;;;;;6.38;4.15;;;7.20;99.90;;;;;;6246724;23;20427;-87
2023/03/22 01:25:18;;;;;;;4.93;4.07;;;7.10;99.90;;;;;;6247565;23;20047;-87
2023/03/22 01:28:06;;;;;;;5.20;4.25;;;7.00;99.90;;;;;;6247217;23;20020;-87
2023/03/22 01:30:57;;;;;;;6.25;4.65;;;6.90;1.00;;;;;;6225341;23;20031;-87
2023/03/22 01:33:44;;;;;;;6.32;4.68;;;6.80;1.00;;;;;;6225978;23;20031;-87
2023/03/22 01:36:31;;;;;;;5.50;3.97;;;6.70;1.00;;;;;;6244165;23;20023;-87
2023/03/22 01:39:21;;;;;;;9.38;4.93;;;6.60;85.80;;;;;;6244575;23;20028;-87
2023/03/22 01:42:14;;;;;;;8.02;4.80;;;6.50;99.90;;;;;;6245331;23;20110;-87
2023/03/22 01:45:14;;;;;;;7.13;5.00;;;6.40;99.90;;;;;;6244855;23;20028;-87
2023/03/22 01:48:07;;;;;;;6.15;4.95;;;6.30;1.00;;;;;;6223850;23;20028;-86
2023/03/22 01:51:13;;;;;;;8.57;5.15;;;6.10;1.00;;;;;;6245131;23;20016;-88
2023/03/22 01:54:05;;;;;;;7.72;5.65;;;6.00;99.90;;;;;;6241883;23;20089;-87
2023/03/22 01:56:52;;;;;;;9.63;5.20;;;6.00;99.90;;;;;;6244321;23;20078;-87
2023/03/22 01:59:41;;;;;;;7.43;5.50;;;6.00;1.00;;;;;;6245646;23;20028;-88
2023/03/22 02:02:31;;;;;;;6.80;5.30;;;6.00;99.90;;;;;;6245573;23;20024;-87
2023/03/22 02:05:22;;;;;;;7.93;5.88;;;6.00;1.00;;;;;;6222012;23;20061;-86
2023/03/22 02:08:09;;;;;;;8.48;6.15;;;6.00;1.00;;;;;;6244935;23;20023;-87
2023/03/22 02:10:56;;;;;;;11.48;5.07;;;6.00;83.90;;;;;;6224948;23;20031;-87
2023/03/22 02:14:10;;;;;;;11.65;5.57;;;6.10;99.90;;;;;;6245752;23;20028;-87
2023/03/22 02:17:14;;;;;;;9.50;5.70;;;6.10;99.90;;;;;;6244760;23;20454;-87
2023/03/22 02:20:10;;;;;;;9.23;5.65;;;6.10;99.90;;;;;;6224678;23;20728;-86
2023/03/22 02:23:27;;;;;;;6.85;5.07;;;6.20;99.90;;;;;;6225185;23;20035;-86
2023/03/22 02:26:14;;;;;;;8.27;5.80;;;6.30;47.60;;;;;;6206852;23;20078;-86
2023/03/22 02:29:33;;;;;;;7.18;5.43;;;6.30;1.00;;;;;;6246905;23;20082;-85
2023/03/22 02:32:46;;;;;;;7.38;5.50;;;6.40;99.90;;;;;;6247726;23;20043;-86
2023/03/22 02:36:10;;;;;;;11.68;5.82;;;6.40;99.90;;;;;;6247144;23;20326;-86
2023/03/22 02:39:30;;;;;;;10.23;5.97;;;6.50;11.70;;;;;;6242740;23;20032;-88
2023/03/22 02:42:38;;;;;;;8.77;5.38;;;6.50;1.00;;;;;;6215671;23;20035;-88
2023/03/22 02:45:49;;;;;;;8.13;5.72;;;6.60;99.90;;;;;;6247135;23;20028;-86
2023/03/22 02:49:02;;;;;;;12.30;5.43;;;6.70;99.90;;;;;;6245889;23;20024;-87
2023/03/22 02:52:17;;;;;;;7.80;5.35;;;6.80;99.90;;;;;;6223157;23;20416;-88
2023/03/22 02:55:27;;;;;;;6.65;4.95;;;6.80;24.10;;;;;;6243595;23;20020;-87
2023/03/22 02:58:21;;;;;;;7.40;5.18;;;6.80;1.00;;;;;;6222466;23;20078;-88
2023/03/22 03:01:10;;;;;;;6.78;5.10;;;6.70;1.00;;;;;;6244637;23;20026;-88
2023/03/22 03:04:01;;;;;;;7.97;5.47;;;6.80;1.00;;;;;;6222791;23;20099;-87
2023/03/22 03:06:51;;;;;;;7.75;4.80;;;6.80;99.90;;;;;;6245425;23;20046;-87
2023/03/22 03:09:40;;;;;;;6.80;4.80;;;7.00;99.90;;;;;;6247440;23;20016;-87
2023/03/22 03:12:29;;;;;;;5.55;4.45;;;7.30;99.90;;;;;;6247230;23;20072;-87
2023/03/22 03:15:22;;;;;;;6.28;4.05;;;7.60;47.40;;;;;;6245777;23;20024;-87
2023/03/22 03:18:39;;;;;;;7.55;4.07;;;7.70;1.00;;;;;;6246960;23;20023;-88
2023/03/22 03:21:31;;;;;;;4.65;3.63;;;7.80;99.90;;;;;;6248697;23;20626;-89
2023/03/22 03:24:52;;;;;;;5.07;3.58;;;7.80;99.90;;;;;;6228080;22;20020;-88
2023/03/22 03:27:48;;;;;;;7.47;3.90;;;7.80;99.90;;;;;;6246692;23;20053;-87
2023/03/22 03:30:49;;;;;;;4.88;4.13;;;7.70;99.90;;;;;;6251593;23;20024;-86
2023/03/22 03:33:44;;;;;;;5.82;4.10;;;7.60;99.90;;;;;;6252000;23;20051;-87
2023/03/22 03:36:36;;;;;;;6.68;4.22;;;7.60;99.90;;;;;;6252470;23;20427;-88
2023/03/22 03:39:27;;;;;;;7.80;3.97;;;7.60;99.90;;;;;;6247671;23;20354;-86
2023/03/22 03:42:16;;;;;;;4.97;3.95;;;7.60;99.90;;;;;;6247875;23;20059;-86
2023/03/22 03:45:05;;;;;;;8.43;4.20;;;7.60;99.90;;;;;;6226246;23;20103;-89
2023/03/22 03:47:57;;;;;;;7.38;4.40;;;7.60;99.90;;;;;;6248124;23;20055;-88
2023/03/22 03:50:49;;;;;;;7.30;4.50;;;7.60;99.90;;;;;;6224988;23;20114;-87
2023/03/22 03:53:36;;;;;;;6.97;4.38;;;7.60;99.90;;;;;;6247811;23;20024;-88
2023/03/22 03:56:23;;;;;;;9.38;4.22;;;7.60;99.90;;;;;;6247754;23;20415;-86
2023/03/22 03:59:11;;;;;;;6.00;4.28;;;7.60;99.90;;;;;;6224774;23;20031;-87
2023/03/22 04:01:58;;;;;;;6.45;4.57;;;7.60;99.90;;;;;;6245242;23;20028;-89
2023/03/22 04:04:45;;;;;;;5.60;4.10;;;7.60;99.90;;;;;;6246435;23;20043;-86
2023/03/22 04:07:33;;;;;;;6.60;4.28;;;7.50;99.90;;;;;;6244798;23;20033;-88
2023/03/22 04:10:20;;;;;;;6.85;3.95;;;7.50;99.90;;;;;;6245671;23;20024;-87
2023/03/22 04:13:08;;;;;;;5.72;4.45;;;7.40;99.90;;;;;;6247296;23;20028;-86
2023/03/22 04:15:56;;;;;;;6.28;4.40;;;7.40;99.90;;;;;;6248169;23;20020;-87
2023/03/22 04:18:44;;;;;;;6.47;4.45;;;7.30;99.90;;;;;;6245460;23;20028;-87
2023/03/22 04:21:35;;;;;;;6.88;4.18;;;7.30;99.90;;;;;;6247097;23;20028;-87
2023/03/22 04:24:25;;;;;;;8.25;4.45;;;7.30;99.90;;;;;;6246027;23;20027;-87
2023/03/22 04:27:12;;;;;;;9.25;4.50;;;7.20;99.90;;;;;;6244774;23;20054;-88
2023/03/22 04:30:03;;;;;;;9.00;4.47;;;7.20;99.90;;;;;;6247970;23;20027;-88
2023/03/22 04:32:50;;;;;;;6.68;4.40;;;7.20;99.90;;;;;;6248225;23;20028;-87
2023/03/22 04:35:38;;;;;;;5.93;4.35;;;7.30;99.90;;;;;;6246872;23;20133;-87
2023/03/22 04:38:25;;;;;;;9.80;4.25;;;7.20;99.90;;;;;;6230497;23;20024;-86
2023/03/22 04:41:12;;;;;;;8.20;5.35;;;7.20;99.90;;;;;;6255834;23;20118;-88
2023/03/22 04:44:02;;;;;;;6.80;4.20;;;7.10;99.90;;;;;;6250708;23;20432;-88
2023/03/22 04:46:50;;;;;;;7.13;4.18;;;7.10;99.90;;;;;;6250014;23;20027;-88
2023/03/22 04:49:37;;;;;;;11.10;4.70;;;7.10;99.90;;;;;;6252766;23;20050;-87
2023/03/22 04:52:25;;;;;;;10.45;5.07;;;7.00;99.90;;;;;;6234046;23;20020;-88
2023/03/22 04:55:14;;;;;;;11.82;5.43;;;6.90;99.90;;;;;;6259112;23;20016;-88
2023/03/22 04:58:04;;;;;;;13.63;5.40;;;6.80;99.90;;;;;;6252276;23;20420;-87
2023/03/22 05:00:57;;;;;;;6.45;4.63;;;6.80;99.90;;;;;;6230505;23;20024;-87
2023/03/22 05:03:46;;;;;;;7.70;4.18;;;6.80;99.90;;;;;;6251236;23;20024;-87
2023/03/22 05:06:33;;;;;;;13.25;4.50;;;6.70;99.90;;;;;;6250202;23;20036;-87
2023/03/22 05:09:20;;;;;;;9.40;4.47;;;6.70;99.90;;;;;;6246324;23;20024;-87
2023/03/22 05:12:09;;;;;;;9.93;4.72;;;6.60;99.90;;;;;;6226448;23;20423;-86
2023/03/22 05:14:57;;;;;;;9.50;4.75;;;6.50;99.90;;;;;;6244863;23;20020;-88
2023/03/22 05:17:47;;;;;;;13.20;4.97;;;6.50;99.90;;;;;;6244592;23;20031;-86
2023/03/22 05:20:35;;;;;;;7.15;4.18;;;6.50;99.90;;;;;;6222357;23;20031;-87
2023/03/22 05:23:26;;;;;;;8.13;4.07;;;6.60;99.90;;;;;;6246268;23;20038;-86
2023/03/22 05:26:15;;;;;;;9.35;4.38;;;6.70;99.90;;;;;;6245878;23;20093;-87
2023/03/22 05:29:03;;;;;;;6.80;4.20;;;6.70;99.90;;;;;;6245381;23;20024;-88
2023/03/22 05:31:52;;;;;;;10.35;4.00;;;6.70;99.90;;;;;;6224052;23;20466;-85
2023/03/22 05:34:41;;;;;;;7.20;4.50;;;6.80;99.90;;;;;;6244122;23;20024;-84
2023/03/22 05:37:28;;;;;;;7.28;4.50;;;6.80;99.90;;;;;;6245588;23;20150;-85
2023/03/22 05:40:18;;;;;;;10.90;4.43;;;6.80;99.90;;;;;;6243646;23;20028;-86
2023/03/22 05:43:05;;;;;;;6.30;4.15;;;6.80;99.90;;;;;;6241657;23;20028;-86
2023/03/22 05:45:53;;;;;;;8.65;4.38;;;6.70;99.90;;;;;;6243901;23;20043;-86
2023/03/22 05:48:40;;;;;;;6.03;3.63;;;6.70;99.90;;;;;;6244594;23;20028;-85
2023/03/22 05:51:31;;;;;;;9.52;3.80;;;6.80;99.90;;;;;;6242836;23;20027;-84
2023/03/22 05:54:20;;;;;;;6.20;4.10;;;6.90;99.90;;;;;;6243475;23;20090;-86
2023/03/22 05:57:08;;;;;;;6.90;4.43;;;7.00;99.90;;;;;;6245804;23;20035;-86
2023/03/22 05:59:57;;;;;;;7.90;4.65;;;7.00;99.90;;;;;;6243910;23;20081;-85
2023/03/22 06:02:51;;;;;;;8.95;4.72;;;7.00;99.90;;;;;;6245417;23;20027;-84
2023/03/22 06:05:38;;;;;;;7.63;5.28;;;6.90;99.90;;;;;;6244310;23;20042;-86
2023/03/22 06:08:26;;;;;;;10.25;4.50;;;6.90;99.90;;;;;;6246427;23;20050;-86
2023/03/22 06:11:14;;;;;;;7.65;4.03;;;6.90;99.90;;;;;;6243973;23;20359;-85
2023/03/22 06:14:01;;;;;;;8.82;4.93;;;6.80;99.90;;;;;;6225913;23;20408;-87
2023/03/22 06:16:51;;;;;;;6.93;4.35;;;6.90;99.90;;;;;;6244778;23;20031;-86
2023/03/22 06:19:39;;;;;;;8.32;4.35;;;6.90;99.90;;;;;;6224981;23;20116;-87
2023/03/22 06:22:29;;;;;;;6.13;4.20;;;6.80;99.90;;;;;;6221530;23;20096;-87
2023/03/22 06:25:16;;;;;;;7.85;4.68;;;6.70;99.90;;;;;;6247543;23;20028;-86
2023/03/22 06:28:03;;;;;;;10.35;5.50;;;6.80;99.90;;;;;;6245924;23;20418;-87
2023/03/22 06:30:55;;;;;;;9.55;4.82;;;6.90;99.90;;;;;;6224689;23;20086;-87
2023/03/22 06:33:50;;;;;;;6.82;4.55;;;7.00;99.90;;;;;;6226491;23;20632;-86
2023/03/22 06:36:41;;;;;;;8.18;4.30;;;7.20;99.90;;;;;;6248146;23;20368;-86
2023/03/22 06:39:33;;;;;;;9.43;4.00;;;7.40;99.90;;;;;;6243860;23;20024;-85
2023/03/22 06:42:22;;;;;;;7.25;3.75;;;7.70;99.90;;;;;;6245565;23;20027;-88
2023/03/22 06:45:13;;;;;;;5.65;3.15;;;7.90;99.90;;;;;;6243784;23;20441;-84
2023/03/22 06:48:00;;;;;;;5.60;3.85;;;8.10;99.90;;;;;;6245443;23;20024;-83
2023/03/22 06:50:47;;;;;;;8.35;3.53;;;8.20;99.90;;;;;;6244443;23;20019;-85
2023/03/22 06:53:37;;;;;;;5.60;3.63;;;8.30;93.70;;;;;;6247069;23;20020;-84
2023/03/22 06:56:25;;;;;;;8.00;3.67;;;8.30;47.40;;;;;;6244858;23;20056;-87
2023/03/22 06:59:18;;;;;;;3.88;3.30;;;8.40;22.90;;;;;;6246165;23;20187;-87
2023/03/22 07:02:24;;;;;;;5.65;3.53;;;8.60;1.00;;;;;;6232804;23;20032;-87
2023/03/22 07:05:13;;;;;;;6.38;3.47;;;8.80;1.00;;;;;;6245231;23;20020;-86
2023/03/22 07:08:02;;;;;;;5.45;3.45;;;8.90;1.00;;;;;;6224771;23;20020;-87
2023/03/22 07:10:50;;;;;;;5.00;2.90;;;9.10;1.00;;;;;;6247155;23;20511;-87
2023/03/22 07:13:37;;;;;;;7.00;3.20;;;9.20;1.00;;;;;;6248482;23;20036;-88
2023/03/22 07:16:24;;;;;;;8.35;3.53;;;9.40;1.00;;;;;;6246670;23;20032;-86
2023/03/22 07:19:11;;;;;;;4.90;2.63;;;9.40;1.00;;;;;;6246529;23;20023;-86
2023/03/22 07:22:04;;;;;;;4.95;3.15;;;9.60;1.00;;;;;;6226196;23;20078;-86
2023/03/22 07:24:52;;;;;;;3.55;2.78;;;9.90;99.90;;;;;;6247552;23;20370;-88
2023/03/22 07:27:46;;;;;;;7.50;2.83;;;10.10;99.90;;;;;;6225960;23;20020;-87
2023/03/22 07:30:36;;;;;;;4.70;2.58;;;10.30;99.90;;;;;;6246928;23;20114;-86
2023/03/22 07:33:26;;;;;;;6.72;3.13;;;10.20;99.90;;;;;;6222544;23;20020;-86
2023/03/22 07:36:16;;;;;;;3.85;2.88;;;10.10;99.90;;;;;;6246970;23;20332;-88
2023/03/22 07:39:04;;;;;;;5.25;2.60;;;10.40;99.90;;;;;;6225705;23;20031;-86
2023/03/22 07:41:56;;;;;;;3.03;1.80;;;10.60;99.90;;;;;;6225553;23;20368;-86
2023/03/22 07:44:46;;;;;;;3.47;1.95;;;10.70;99.90;;;;;;6229107;23;20024;-88
2023/03/22 07:47:33;;;;;;;4.57;1.90;;;11.00;99.90;;;;;;6245418;23;20039;-85
2023/03/22 07:50:27;;;;;;;3.13;1.83;;;11.30;99.90;;;;;;6246923;23;20020;-86
2023/03/22 07:53:14;;;;;;;3.72;1.40;;;11.50;99.90;;;;;;6248170;23;20031;-87
2023/03/22 07:56:08;;;;;;;2.30;1.60;;;11.70;99.90;;;;;;6246521;23;20020;-87
2023/03/22 07:58:55;;;;;;;3.60;1.60;;;12.00;99.90;;;;;;6249668;23;20324;-88
2023/03/22 08:01:43;;;;;;;2.47;1.77;;;11.90;99.90;;;;;;6248373;23;20038;-88
2023/03/22 08:04:30;;;;;;;2.70;1.98;;;11.80;99.90;;;;;;6253252;23;20024;-87
2023/03/22 08:07:20;;;;;;;4.43;1.90;;;12.00;99.90;;;;;;6228693;23;20110;-89
2023/03/22 08:10:10;;;;;;;4.00;1.88;;;12.30;99.90;;;;;;6225454;23;20025;-90
2023/03/22 08:13:00;;;;;;;4.07;1.77;;;12.40;99.90;;;;;;6248411;23;20028;-88
2023/03/22 08:15:47;;;;;;;2.97;1.77;;;12.60;99.90;;;;;;6246393;23;20092;-87
2023/03/22 08:18:35;;;;;;;8.60;1.95;;;12.70;99.90;;;;;;6245515;23;20423;-87
2023/03/22 08:21:22;;;;;;;5.07;2.33;;;12.80;99.90;;;;;;6224522;23;20095;-88
2023/03/22 08:24:13;;;;;;;4.43;1.65;;;13.10;99.90;;;;;;6224947;23;20043;-85
2023/03/22 08:27:04;;;;;;;2.08;1.50;;;13.40;99.90;;;;;;6227022;23;20126;-88
2023/03/22 08:29:51;;;;;;;4.97;1.90;;;13.60;99.90;;;;;;6224035;23;20078;-87
2023/03/22 08:32:44;;;;;;;3.85;1.70;;;13.60;99.50;;;;;;6244599;23;20024;-88
2023/03/22 08:35:31;;;;;;;4.45;1.70;;;13.80;98.50;;;;;;6246446;23;20061;-86
2023/03/22 08:38:21;;;;;;;4.85;1.60;;;13.90;97.10;;;;;;6244820;23;20025;-87
2023/03/22 08:41:09;;;;;;;4.43;1.45;;;14.00;96.50;;;;;;6245497;23;20035;-86
2023/03/22 08:43:57;;;;;;;2.78;1.92;;;14.40;93.40;;;;;;6245976;23;20028;-90
2023/03/22 08:46:45;;;;;;;3.55;1.77;;;14.30;90.70;;;;;;6247619;23;20024;-91
2023/03/22 08:49:33;;;;;;;5.68;1.50;;;14.90;91.70;;;;;;6251326;23;20028;-90
2023/03/22 08:52:23;;;;;;;1.90;1.42;;;14.80;81.90;;;;;;6227755;23;20327;-88
2023/03/22 08:55:10;;;;;;;3.42;1.70;;;15.30;83.70;;;;;;6248115;23;20629;-88
2023/03/22 08:57:58;;;;;;;1.95;1.60;;;15.50;77.10;;;;;;6226930;23;20034;-88
2023/03/22 09:00:46;;;;;;;5.18;2.10;;;15.30;72.30;;;;;;6224398;23;20028;-86
2023/03/22 09:03:35;;;;;;;2.92;1.58;;;15.50;74.50;;;;;;6226826;23;20023;-91
2023/03/22 09:06:24;;;;;;;2.72;1.50;;;15.30;59.90;;;;;;6245820;23;20078;-89
2023/03/22 09:09:14;;;;;;;2.28;1.42;;;15.10;64.00;;;;;;6223489;23;20079;-88
2023/03/22 09:12:04;;;;;;;2.90;1.52;;;15.70;68.00;;;;;;6226596;23;20020;-87
2023/03/22 09:14:53;;;;;;;3.10;1.48;;;16.30;59.20;;;;;;6246724;23;20027;-90
2023/03/22 09:17:46;;;;;;;4.63;1.38;;;16.40;49.90;;;;;;6246047;23;20024;-90
2023/03/22 09:20:33;;;;;;;1.30;1.20;;;17.00;48.20;;;;;;6246084;23;20027;-90
2023/03/22 09:23:20;;;;;;;3.88;1.67;;;17.10;41.80;;;;;;6224671;23;20028;-89
2023/03/22 09:26:11;;;;;;;4.50;1.58;;;16.20;34.90;;;;;;6247137;23;20028;-88
2023/03/22 09:28:58;;;;;;;2.58;1.30;;;16.90;36.90;;;;;;6226288;23;20067;-88
2023/03/22 09:31:50;;;;;;;2.10;1.08;;;17.00;30.90;;;;;;6246394;23;20031;-87
2023/03/22 09:34:40;;;;;;;3.20;1.48;;;17.00;27.20;;;;;;6223281;23;20032;-89
2023/03/22 09:37:30;;;;;;;1.50;1.05;;;16.60;25.80;;;;;;6223427;23;20023;-90
2023/03/22 09:40:18;;;;;;;3.63;1.35;;;16.70;27.60;;;;;;6226614;23;20032;-88
2023/03/22 09:43:08;;;;;;;2.08;1.42;;;16.80;26.50;;;;;;6247913;23;20756;-87
2023/03/22 09:45:55;;;;;;;3.22;1.08;;;16.80;21.80;;;;;;6247380;23;20032;-89
2023/03/22 09:48:46;;;;;;;3.40;1.30;;;17.60;20.20;;;;;;6244745;23;20296;-89
2023/03/22 09:51:40;;;;;;;1.40;1.30;;;17.10;15.90;;;;;;6222912;23;20024;-88
2023/03/22 09:54:39;;;;;;;3.45;1.30;;;16.50;16.50;;;;;;6253607;23;20031;-85
2023/03/22 09:57:36;;;;;;;2.75;1.05;;;16.80;15.00;;;;;;6258800;23;20059;-87
2023/03/22 10:00:29;;;;;;;1.52;1.20;;;17.00;13.50;;;;;;6256488;23;20031;-88
2023/03/22 10:03:48;;;;;;;3.30;1.10;;;17.30;11.80;;;;;;6255089;23;20090;-87
2023/03/22 10:06:36;;;;;;;1.83;1.20;;;16.50;5.40;;;;;;6259745;23;20712;-88
2023/03/22 10:09:58;;;;;;;1.88;1.20;;;16.30;7.80;;;;;;6237945;23;20416;-87
2023/03/22 10:13:14;;;;;;;1.63;1.10;;;16.20;6.60;;;;;;6204115;23;20071;-92
2023/03/22 10:16:09;;;;;;;1.98;1.27;;;16.40;7.90;;;;;;6229400;23;20024;-88
2023/03/22 10:19:40;;;;;;;1.83;1.15;;;17.40;9.00;;;;;;6251655;23;20034;-90
2023/03/22 10:22:37;;;;;;;1.80;0.85;;;17.70;3.50;;;;;;6125523;23;20030;-87
2023/03/22 10:25:35;;;;;;;1.67;1.02;;;18.30;1.80;;;;;;6225515;23;20024;-89
2023/03/22 10:28:40;;;;;;;3.45;1.02;;;18.00;1.00;;;;;;6243697;23;20435;-88
2023/03/22 10:31:29;;;;;;;1.00;0.85;;;18.80;1.00;;;;;;6245571;23;20052;-89
2023/03/22 10:34:31;;;;;;;;;;;;;;;;;;;;;
2023/03/22 10:37:40;;;;;;;2.47;0.70;;;18.90;1.00;;;;;;6243693;23;20382;-89
2023/03/22 10:40:35;;;;;;;1.33;0.77;;;20.00;1.00;;;;;;6244358;23;20101;-91
2023/03/22 10:43:34;;;;;;;;;;;20.30;1.00;;;;;;6244921;23;20043;-90
2023/03/22 10:46:25;;;;;;;1.30;0.70;;;20.60;1.00;;;;;;6246845;23;20573;-92
2023/03/22 10:49:28;;;;;;;3.05;1.17;;;21.10;1.00;;;;;;6252527;23;20024;-89
2023/03/22 10:52:44;;;;;;;1.45;0.75;;;20.40;1.00;;;;;;6254864;23;20024;-89
2023/03/22 10:55:44;;;;;;;1.23;0.80;;;20.30;1.00;;;;;;6224446;23;20443;-89
2023/03/22 10:58:33;;;;;;;3.03;0.70;;;21.00;1.00;;;;;;6226220;23;20028;-89
2023/03/22 11:01:43;;;;;;;0.93;0.70;;;20.70;1.00;;;;;;6225128;23;20035;-90
2023/03/22 11:04:58;;;;;;;1.85;0.60;;;20.20;1.00;;;;;;6226571;23;20087;-94
2023/03/22 11:07:45;;;;;;;1.20;0.80;;;20.20;1.00;;;;;;6246982;23;20042;-91
2023/03/22 11:10:53;;;;;;;1.58;0.95;;;20.20;1.00;;;;;;6246531;23;20255;-91
2023/03/22 11:14:26;;;;;;;0.73;0.60;;;20.10;1.00;;;;;;6247991;23;20113;-90
2023/03/22 11:17:24;;;;;;;1.05;0.70;;;20.80;1.00;;;;;;6244916;23;20099;-92
2023/03/22 11:20:17;;;;;;;1.75;0.63;;;20.60;1.00;;;;;;6247427;23;20024;-88
2023/03/22 11:23:05;;;;;;;1.20;0.63;;;20.10;1.00;;;;;;6231900;23;20024;-90
2023/03/22 11:25:57;;;;;;;4.28;0.82;;;20.80;1.00;;;;;;6230564;23;20032;-92
2023/03/22 11:28:49;;;;;;;1.30;0.93;;;21.60;1.00;;;;;;6254427;23;20024;-93
2023/03/22 11:36:17;;;;;;;2.13;0.47;;;21.10;1.00;;;;;;5991214;24;20099;-91
2023/03/22 11:39:25;;;;;;;1.05;0.50;;;22.10;1.00;;;;;;5986741;24;20092;-90
2023/03/22 11:42:20;;;;;;;1.05;0.80;;;22.00;1.00;;;;;;5989857;24;20051;-89
2023/03/22 11:45:49;;;;;;;;;;;20.20;1.00;;;;;;5982436;24;20028;-92
2023/03/22 11:48:50;;;;;;;2.08;0.90;;;19.60;1.00;;;;;;5966179;24;19919;-93
2023/03/22 11:51:42;;;;;;;1.63;1.00;;;18.80;1.00;;;;;;5990965;23;20100;-92
2023/03/22 11:54:44;;;;;;;1.77;0.70;;;18.60;1.00;;;;;;5992665;23;20058;-90
2023/03/22 11:57:34;;;;;;;1.88;1.05;;;18.60;1.00;;;;;;5991601;24;20118;-92
2023/03/22 12:04:33;;;;;;;1.65;0.70;;;18.00;1.00;;;;;;6044344;23;20106;-91
2023/03/22 12:07:23;;;;;;;;;;;19.40;1.00;;;;;;6125362;23;20782;-89
2023/03/22 12:10:29;;;;;;;0.98;0.75;;;19.80;1.00;;;;;;6229638;23;19915;-89
2023/03/22 12:14:02;;;;;;;3.28;0.73;;;19.50;1.00;;;;;;6226917;23;20153;-88
2023/03/22 12:16:58;;;;;;;3.15;0.80;;;19.50;1.00;;;;;;6247267;23;20096;-88
2023/03/22 12:20:28;;;;;;;0.98;0.70;;;19.40;1.00;;;;;;6250116;23;20023;-88
2023/03/22 12:23:31;;;;;;;2.35;0.60;;;19.80;1.00;;;;;;6226168;23;20115;-87
2023/03/22 12:26:36;;;;;;;0.63;0.60;;;21.90;1.00;;;;;;6246738;23;20055;-88
2023/03/22 12:29:58;;;;;;;1.70;0.85;;;22.50;1.00;;;;;;6247472;23;20427;-87
2023/03/22 12:33:15;;;;;;;2.60;0.82;;;21.30;1.00;;;;;;6229167;23;20031;-86
2023/03/22 12:36:19;;;;;;;1.65;1.10;;;19.70;1.00;;;;;;6248457;23;20028;-88
2023/03/22 12:39:11;;;;;;;1.25;0.70;;;19.80;1.00;;;;;;6245791;23;20098;-86
2023/03/22 12:42:12;;;;;;;3.78;0.60;;;20.50;1.00;;;;;;6226248;23;20285;-88
2023/03/22 12:45:21;;;;;;;0.88;0.70;;;21.60;1.00;;;;;;6247042;23;20031;-90
2023/03/22 12:49:18;;;;;;;1.40;0.80;;;22.00;1.00;;;;;;6249210;23;20024;-92
2023/03/22 12:52:41;;;;;;;0.93;0.60;;;22.10;1.00;;;;;;6141495;23;20029;-88
2023/03/22 12:56:02;;;;;;;;;;;;;;;;;;;;;
2023/03/22 12:59:48;;;;;;;0.60;0.57;;;23.20;1.00;;;;;;6259405;23;20030;-91
2023/03/22 13:02:36;;;;;;;1.90;0.77;;;25.60;1.00;;;;;;6240682;23;20089;-91
2023/03/22 13:05:35;;;;;;;1.27;0.60;;;24.50;1.00;;;;;;6243102;23;20072;-91
2023/03/22 13:08:45;;;;;;;0.82;0.68;;;23.70;1.00;;;;;;6269644;22;20008;-91
2023/03/22 13:12:07;;;;;;;1.52;0.60;;;22.50;1.00;;;;;;6272210;22;20059;-90
2023/03/22 13:15:49;;;;;;;2.85;0.90;;;22.20;1.00;;;;;;6245337;23;20032;-90
2023/03/22 13:18:37;;;;;;;2.63;0.60;;;23.00;1.00;;;;;;6125650;23;20030;-90
2023/03/22 13:21:33;;;;;;;1.02;0.50;;;24.20;1.00;;;;;;6265498;22;20100;-91
2023/03/22 13:24:26;;;;;;;2.30;0.50;;;25.40;1.00;;;;;;6262550;23;20024;-91
2023/03/22 13:28:02;;;;;;;2.15;0.75;;;25.10;1.00;;;;;;6254439;23;20020;-91
2023/03/22 13:30:59;;;;;;;1.97;0.77;;;24.80;1.00;;;;;;6250110;23;20055;-88
2023/03/22 13:33:56;;;;;;;1.88;0.60;;;24.00;1.00;;;;;;6252116;23;20250;-89
2023/03/22 13:36:55;;;;;;;3.58;0.82;;;24.00;1.00;;;;;;6229181;23;20024;-91
2023/03/22 13:39:50;;;;;;;2.90;0.80;;;23.20;1.00;;;;;;6226033;23;20145;-89
2023/03/22 13:42:41;;;;;;;1.20;0.65;;;22.50;1.00;;;;;;6245259;23;20043;-91
2023/03/22 13:45:32;;;;;;;0.40;0.40;;;22.70;1.00;;;;;;6247134;23;20081;-90
2023/03/22 13:48:40;;;;;;;1.95;0.60;;;23.70;1.00;;;;;;6246887;23;20032;-89
2023/03/22 13:51:36;;;;;;;4.93;0.50;;;24.50;1.00;;;;;;6226016;23;20024;-90
2023/03/22 13:55:06;;;;;;;0.73;0.38;;;23.90;1.00;;;;;;6223978;23;20078;-90
2023/03/22 14:02:15;;;;;;;1.48;0.68;;;25.50;1.00;;;;;;6245855;23;20012;-89
2023/03/22 14:05:27;;;;;;;1.65;0.70;;;23.80;1.00;;;;;;6245628;23;20074;-91
2023/03/22 14:08:20;;;;;;;1.98;0.68;;;23.20;1.00;;;;;;6249261;22;20050;-88
2023/03/22 14:11:33;;;;;;;3.80;0.50;;;23.90;1.00;;;;;;6245969;23;20024;-87
2023/03/22 14:14:29;;;;;;;1.85;0.68;;;23.30;1.00;;;;;;6243966;23;20027;-90
2023/03/22 14:17:57;;;;;;;1.80;0.60;;;22.30;1.00;;;;;;6248282;23;20024;-90
2023/03/22 14:20:53;;;;;;;0.70;0.50;;;22.80;1.00;;;;;;6244955;23;20490;-91
2023/03/22 14:23:59;;;;;;;4.43;1.05;;;21.20;1.00;;;;;;6223460;23;20020;-88
2023/03/22 14:26:56;;;;;;;2.13;0.80;;;19.70;1.00;;;;;;6244929;23;20008;-91
2023/03/22 14:29:46;;;;;;;1.33;0.90;;;19.20;1.00;;;;;;6225177;23;20086;-89
2023/03/22 14:32:37;;;;;;;2.40;1.02;;;19.30;1.00;;;;;;6247317;23;20012;-90
2023/03/22 14:35:45;;;;;;;2.92;1.08;;;19.60;1.00;;;;;;6250729;23;20012;-91
2023/03/22 14:38:38;;;;;;;1.10;0.80;;;20.50;1.00;;;;;;6251289;23;20087;-91
2023/03/22 14:41:27;;;;;;;1.00;0.50;;;21.30;1.00;;;;;;6249405;23;20020;-93
2023/03/22 14:44:13;;;;;;;2.30;0.77;;;21.70;1.00;;;;;;6227146;23;20023;-90
2023/03/22 14:47:13;;;;;;;1.33;0.90;;;22.00;1.00;;;;;;6226313;23;20023;-89
2023/03/22 14:50:09;;;;;;;2.58;0.90;;;21.60;1.00;;;;;;6247027;23;20052;-88
2023/03/22 14:52:55;;;;;;;0.88;0.88;;;21.60;1.00;;;;;;6205392;23;20107;-91
2023/03/22 14:55:44;;;;;;;2.35;0.70;;;22.20;1.00;;;;;;6225416;23;20024;-86
2023/03/22 14:58:34;;;;;;;1.17;0.80;;;23.30;1.00;;;;;;6224812;23;20024;-88
2023/03/22 15:01:54;;;;;;;1.75;1.25;;;22.40;1.00;;;;;;6203568;23;20020;-89
2023/03/22 15:04:44;;;;;;;2.72;0.70;;;21.90;1.00;;;;;;6202644;23;20293;-90
2023/03/22 15:07:54;;;;;;;3.92;1.65;;;21.90;1.00;;;;;;6227055;23;20030;-89
2023/03/22 15:10:41;;;;;;;1.67;0.70;;;21.80;1.00;;;;;;6205624;23;20028;-91
2023/03/22 15:13:31;;;;;;;1.05;0.80;;;22.00;1.00;;;;;;6210272;23;20425;-90
2023/03/22 15:16:21;;;;;;;2.10;0.85;;;22.50;1.00;;;;;;6208963;23;20020;-90
2023/03/22 15:19:12;;;;;;;1.65;0.90;;;22.10;1.00;;;;;;6204914;23;20028;-88
2023/03/22 15:22:21;;;;;;;1.30;1.00;;;21.80;1.00;;;;;;6204785;23;20020;-89
2023/03/22 15:25:13;;;;;;;2.53;1.20;;;21.10;1.00;;;;;;6202478;23;20034;-88
2023/03/22 15:28:03;;;;;;;1.42;0.90;;;20.50;1.00;;;;;;6204024;23;20169;-90
2023/03/22 15:30:52;;;;;;;2.42;1.10;;;20.70;1.00;;;;;;6226729;23;20032;-89
2023/03/22 15:33:38;;;;;;;1.80;1.05;;;21.00;1.00;;;;;;6227690;23;20078;-89
2023/03/22 15:36:35;;;;;;;2.67;1.17;;;20.30;1.00;;;;;;6204073;23;20016;-89